Stratford, Canada
Current Conditions -  °F | °C
As of 9:00 PM on Saturday 22 Nov 2014 (Local Time) from CYXU Reporting Station
Rain Showers Rain Showers  
Wind Chill: 35°   Ceiling: 2100
Heat Index: 41°   Visibility: 8mi
Dew Point: 39°   Wind: 10mph
Humidity: 93%   Direction: 210°SSW
Pressure: 29.95"   Gusts: NA
Location:  43.37°N, 80.98°W
Report Text: CYXU 230200Z 21009KT 8SM -SHRA OVC021 05/04 A2995 RMK SC8 CVCTV CLD ASOCTD SLP149
Loading
Personal Weather Stations






























Interactive Weather Map New forecast layout! Learn more

10-Day Weather Forecast

Advertisements
Track Severe Weather on mobile